• Join FlightAware (Why Join?)
  • Login
  • US Flag 
01:10PM EDT


 

Airport Tracker/Info


-or-


 

Live Flight TrackerFlight Track Log ✈ AWE1940 ✈ 09-Jun-2013 ✈ KIAH - KCLT

Flight Track Log - Related Links

Times and Time Zones

All times are in EDT time to prevent confusion due to time zone crossing. See the AWE1940 flight status page for this flight to view local times or setup timezone preferences in your user account.

Time Position Orientation Groundspeed Altitude Reporting Facility
EDT Latitude Longitude Course Direction KTS MPH feet Rate Location/Type
07:51PM 29.9525 -95.3350 121° Southeast 180 207 1,000  Level Houston Center
07:53PM 29.9219 -95.2753 121° Southeast 234 269 2,900 2,040 Climbing Houston Center
07:54PM 29.9328 -95.1681 83° East 282 325 5,700 2,580 Climbing Houston Center
07:55PM 29.9394 -95.0753 85° East 288 331 8,300 2,340 Climbing Houston Center
07:56PM 29.9475 -94.9761 85° East 302 348 10,500 1,560 Climbing Houston Center
07:57PM 29.9556 -94.8625 85° East 347 399 11,600 1,500 Climbing Houston Center
07:58PM 29.9650 -94.7350 85° East 390 449 13,700 2,160 Climbing Houston Center
07:59PM 29.9747 -94.6058 85° East 401 461 16,100 1,980 Climbing Houston Center
08:00PM 29.9853 -94.4672 85° East 416 479 17,800 1,620 Climbing Houston Center
08:01PM 29.9944 -94.3294 86° East 431 496 19,500 1,560 Climbing Houston Center
08:02PM 30.0117 -94.1881 82° East 446 513 21,000 1,680 Climbing Houston Center
08:03PM 30.0331 -94.0169 82° East 452 520 23,000 960 Climbing Houston Center
08:04PM 30.0508 -93.8744 82° East 453 521 23,000 1,200 Level Houston Center
08:05PM 30.0683 -93.7344 82° East 445 512 25,500 1,440 Climbing Houston Center
08:06PM 30.0831 -93.5994 83° East 432 497 26,000 480 Climbing Houston Center
08:07PM 30.1000 -93.4525 82° East 459 528 26,500 1,020 Climbing Houston Center
08:08PM 30.1214 -93.2750 82° East 471 542 28,200 1,260 Climbing Houston Center
08:09PM 30.1381 -93.1294 82° East 464 534 29,200 900 Climbing Houston Center
08:10PM 30.1647 -92.9833 78° East 467 537 30,100 840 Climbing Houston Center
08:11PM 30.1922 -92.8394 77° East 464 534 31,000 780 Climbing Houston Center
08:12PM 30.2214 -92.6944 77° East 464 534 31,700 720 Climbing Houston Center
08:13PM 30.2497 -92.5483 77° East 468 539 32,600 600 Climbing Houston Center
08:14PM 30.2597 -92.3728 86° East 462 532 33,000 180 Climbing Houston Center
08:15PM 30.2592 -92.2383 90° East 455 524 33,000  Level Houston Center
08:16PM 30.2631 -92.0928 88° East 455 524 33,000  Level Houston Center
08:17PM 30.2700 -91.9161 87° East 460 529 33,000  Level Houston Center
08:18PM 30.2747 -91.7694 88° East 460 529 33,000  Level Houston Center
08:19PM 30.2797 -91.6411 87° East 464 534 33,000  Level Houston Center
08:20PM 30.2914 -91.4578 86° East 476 548 33,000  Level Houston Center
08:21PM 30.2994 -91.3044 86° East 478 550 33,000  Level Houston Center
08:22PM 30.3275 -91.1539 78° East 479 551 33,000  Level Houston Center
08:24PM 30.3703 -91.0069 71° East 481 554 33,000  Level Houston Center
08:25PM 30.4147 -90.8614 70° East 480 552 33,000 -60 Level Houston Center
08:26PM 30.4583 -90.7153 71° East 480 552 32,900  Descending Houston Center
08:27PM 30.5278 -90.5822 59° Northeast 481 554 33,000  Climbing Houston Center
08:28PM 30.6136 -90.4231 58° Northeast 484 557 33,000  Level Houston Center
08:29PM 30.6858 -90.2906 58° Northeast 483 556 33,000  Level Houston Center
08:30PM 30.7589 -90.1564 58° Northeast 488 562 33,000  Level Houston Center
08:31PM 30.8308 -90.0225 58° Northeast 485 558 33,000  Level Houston Center
08:32PM 30.9033 -89.8869 58° Northeast 488 562 33,000  Level Houston Center
08:33PM 30.9753 -89.7517 58° Northeast 489 563 33,000  Level Houston Center
08:34PM 31.0481 -89.6164 58° Northeast 490 564 33,000  Level Houston Center
08:35PM 31.1208 -89.4806 58° Northeast 491 565 33,000  Level Houston Center
08:36PM 31.1919 -89.3458 58° Northeast 488 562 33,000  Level Houston Center
08:37PM 31.2728 -89.1939 58° Northeast 486 559 33,000  Level Houston Center
08:38PM 31.3439 -89.0581 58° Northeast 489 563 33,000  Level Houston Center
08:39PM 31.4150 -88.9236 58° Northeast 486 559 33,000  Level Houston Center
08:40PM 31.4847 -88.7858 59° Northeast 488 562 33,000  Level Houston Center
08:41PM 31.5572 -88.6494 58° Northeast 490 564 33,000  Level Houston Center
08:42PM 31.6269 -88.5131 59° Northeast 486 559 33,000  Level Houston Center
08:43PM 31.7125 -88.3506 58° Northeast 485 558 33,000  Level Houston Center
08:44PM 31.7822 -88.2147 59° Northeast 482 555 33,000  Level Houston Center
08:45PM 31.8319 -88.1086 61° Northeast 480 552 33,000  Level Atlanta Center
08:46PM 31.8861 -87.9864 62° Northeast 467 537 33,000  Level Atlanta Center
08:47PM 31.9489 -87.8472 62° Northeast 467 537 33,000  Level Atlanta Center
08:48PM 32.0072 -87.7103 63° Northeast 467 537 33,000  Level Atlanta Center
08:49PM 32.0744 -87.5536 63° Northeast 467 537 33,000  Level Atlanta Center
08:50PM 32.1306 -87.4136 65° Northeast 467 537 33,000  Level Atlanta Center
08:51PM 32.1928 -87.2736 62° Northeast 467 537 33,000  Level Atlanta Center
08:52PM 32.2503 -87.1381 63° Northeast 467 537 33,000  Level Atlanta Center
08:53PM 32.3122 -87.0003 62° Northeast 462 532 33,000  Level Atlanta Center
08:54PM 32.3675 -86.8644 64° Northeast 462 532 33,000  Level Atlanta Center
08:55PM 32.4311 -86.7261 61° Northeast 462 532 33,000  Level Atlanta Center
08:56PM 32.4903 -86.6047 60° Northeast 462 532 33,000  Level Atlanta Center
08:57PM 32.5519 -86.4439 66° East 467 537 33,000  Level Atlanta Center
08:58PM 32.6108 -86.3025 64° Northeast 472 543 33,000  Level Atlanta Center
08:59PM 32.6719 -86.1586 63° Northeast 472 543 33,000  Level Atlanta Center
09:00PM 32.7242 -86.0289 64° Northeast 477 549 33,000  Level Atlanta Center
09:01PM 32.7828 -85.8869 64° Northeast 477 549 33,000  Level Atlanta Center
09:02PM 32.8411 -85.7422 64° Northeast 482 555 33,000  Level Atlanta Center
09:03PM 32.9014 -85.5975 64° Northeast 482 555 33,000  Level Atlanta Center
09:04PM 32.9594 -85.4575 64° Northeast 477 549 33,000  Level Atlanta Center
09:05PM 33.0194 -85.3122 64° Northeast 477 549 33,000  Level Atlanta Center
09:06PM 33.0836 -85.1619 63° Northeast 467 537 33,000  Level Atlanta Center
09:07PM 33.1411 -85.0189 64° Northeast 467 537 33,000  Level Atlanta Center
09:08PM 33.1986 -84.8756 64° Northeast 467 537 33,000  Level Atlanta Center
09:09PM 33.2558 -84.7294 65° Northeast 476 548 33,000  Level Atlanta Center
09:10PM 33.3131 -84.5833 65° Northeast 483 556 33,000  Level Atlanta Center
09:11PM 33.3700 -84.4392 65° Northeast 477 549 33,000  Level Atlanta Center
09:12PM 33.4286 -84.2953 64° Northeast 477 549 33,000  Level Atlanta Center
09:13PM 33.4831 -84.1483 66° East 477 549 33,000  Level Atlanta Center
09:14PM 33.5439 -84.0014 64° Northeast 477 549 33,000  Level Atlanta Center
09:15PM 33.6000 -83.8567 65° Northeast 483 556 33,000  Level Atlanta Center
09:16PM 33.6561 -83.7094 65° Northeast 478 550 33,000  Level Atlanta Center
09:17PM 33.7139 -83.5594 65° Northeast 484 557 33,000  Level Atlanta Center
09:18PM 33.7717 -83.4167 64° Northeast 476 548 33,000 -180 Level Atlanta Center
09:19PM 33.8272 -83.2711 65° Northeast 471 542 32,700 -600 Descending Atlanta Center
09:20PM 33.8786 -83.1406 65° Northeast 471 542 31,900 -900 Descending Atlanta Center
09:21PM 33.9358 -82.9972 64° Northeast 471 542 31,000 -480 Descending Atlanta Center
09:22PM 33.9867 -82.8514 67° East 471 542 31,000  Level Atlanta Center
09:23PM 34.0436 -82.7025 65° Northeast 477 549 31,000  Level Atlanta Center
09:24PM 34.0942 -82.5564 67° East 477 549 31,000 -600 Level Atlanta Center
09:25PM 34.1611 -82.3969 63° Northeast 477 549 29,800 -2,460 Descending Atlanta Center
09:26PM 34.2153 -82.2503 66° East 477 549 26,100 -3,060 Descending Atlanta Center
09:27PM 34.2842 -82.1081 60° Northeast 477 549 23,700 -2,700 Descending Atlanta Center
09:28PM 34.3742 -81.9953 46° Northeast 476 548 20,800 -2,820 Descending Atlanta Center
09:29PM 34.4619 -81.8847 46° Northeast 464 534 18,100 -2,700 Descending Atlanta Center
09:30PM 34.5436 -81.7842 45° Northeast 445 512 15,600 -2,520 Descending Atlanta Center
09:31PM 34.6211 -81.6914 45° Northeast 421 484 13,400 -1,860 Descending Atlanta Center
09:32PM 34.6986 -81.5906 47° Northeast 398 458 12,100 -720 Descending Atlanta Center
09:33PM 34.7678 -81.5000 47° Northeast 396 456 12,100 -60 Level Atlanta Center
09:34PM 34.8428 -81.4042 46° Northeast 397 457 12,000 -60 Descending Atlanta Center
09:35PM 34.9139 -81.3133 46° Northeast 397 457 12,000  Level Atlanta Center
09:35PM 34.9261 -81.2978 46° Northeast 385 443 12,000 60 Level Atlanta Center
09:36PM 34.9869 -81.2169 47° Northeast 397 457 12,100  Climbing Atlanta Center
09:36PM 35.0011 -81.1989 46° Northeast 385 443 12,000 -240 Descending Atlanta Center
09:37PM 35.0597 -81.1233 47° Northeast 375 432 11,900 -240 Descending Atlanta Center
09:37PM 35.0697 -81.1078 52° Northeast 372 428 11,800 -1,200 Descending Atlanta Center
09:38PM 35.1478 -81.0567 28° Northeast 309 356 10,600 -1,560 Descending Atlanta Center
09:39PM 35.2181 -81.0211 22° Northeast 310 357 9,100 -1,440 Descending Atlanta Center
09:40PM 35.2961 -80.9775 25° Northeast 305 351 7,800 -1,140 Descending Atlanta Center
09:41PM 35.3403 -80.9097 51° Northeast 261 300 7,000 -1,200 Descending Atlanta Center
09:42PM 35.3861 -80.8264 56° Northeast 252 290 5,400 -1,260 Descending Atlanta Center
09:43PM 35.3642 -80.7789 120° Southeast 194 223 4,500 -1,020 Descending Atlanta Center